sensor_id;sensor_type;location;lat;lon;timestamp;P1;durP1;ratioP1;P2;durP2;ratioP2
77324;SDS011;66387;53.440;10.390;2023-04-01T00:01:13;7.80;;;4.00;;
77324;SDS011;66387;53.440;10.390;2023-04-01T00:03:39;6.47;;;3.25;;
77324;SDS011;66387;53.440;10.390;2023-04-01T00:06:05;7.90;;;2.83;;
77324;SDS011;66387;53.440;10.390;2023-04-01T00:08:30;10.05;;;3.40;;
77324;SDS011;66387;53.440;10.390;2023-04-01T00:10:56;6.13;;;3.10;;
77324;SDS011;66387;53.440;10.390;2023-04-01T00:13:22;7.38;;;3.65;;
77324;SDS011;66387;53.440;10.390;2023-04-01T00:15:48;5.88;;;3.72;;
77324;SDS011;66387;53.440;10.390;2023-04-01T00:18:14;6.40;;;2.85;;
77324;SDS011;66387;53.440;10.390;2023-04-01T00:20:44;5.30;;;3.17;;
77324;SDS011;66387;53.440;10.390;2023-04-01T00:23:11;5.45;;;2.75;;
77324;SDS011;66387;53.440;10.390;2023-04-01T00:25:36;4.88;;;3.05;;
77324;SDS011;66387;53.440;10.390;2023-04-01T00:28:01;7.13;;;3.00;;
77324;SDS011;66387;53.440;10.390;2023-04-01T00:30:27;9.87;;;3.20;;
77324;SDS011;66387;53.440;10.390;2023-04-01T00:32:52;4.97;;;3.20;;
77324;SDS011;66387;53.440;10.390;2023-04-01T00:35:18;6.75;;;3.40;;
77324;SDS011;66387;53.440;10.390;2023-04-01T00:37:44;5.32;;;3.08;;
77324;SDS011;66387;53.440;10.390;2023-04-01T00:40:19;6.87;;;3.53;;
77324;SDS011;66387;53.440;10.390;2023-04-01T00:42:48;5.20;;;3.00;;
77324;SDS011;66387;53.440;10.390;2023-04-01T00:45:30;8.67;;;3.33;;
77324;SDS011;66387;53.440;10.390;2023-04-01T00:47:59;5.50;;;3.17;;
77324;SDS011;66387;53.440;10.390;2023-04-01T00:50:30;4.43;;;2.88;;
77324;SDS011;66387;53.440;10.390;2023-04-01T00:55:24;4.88;;;2.85;;
77324;SDS011;66387;53.440;10.390;2023-04-01T00:57:53;7.38;;;2.97;;
77324;SDS011;66387;53.440;10.390;2023-04-01T01:00:21;7.78;;;3.33;;
77324;SDS011;66387;53.440;10.390;2023-04-01T01:02:47;5.87;;;3.10;;
77324;SDS011;66387;53.440;10.390;2023-04-01T01:05:15;6.80;;;3.78;;
77324;SDS011;66387;53.440;10.390;2023-04-01T01:07:46;5.28;;;4.05;;
77324;SDS011;66387;53.440;10.390;2023-04-01T01:10:21;5.63;;;3.78;;
77324;SDS011;66387;53.440;10.390;2023-04-01T01:15:56;6.28;;;3.22;;
77324;SDS011;66387;53.440;10.390;2023-04-01T01:21:29;4.60;;;3.10;;
77324;SDS011;66387;53.440;10.390;2023-04-01T01:27:17;8.07;;;3.60;;
77324;SDS011;66387;53.440;10.390;2023-04-01T01:29:47;6.07;;;3.35;;
77324;SDS011;66387;53.440;10.390;2023-04-01T01:37:51;6.85;;;3.72;;
77324;SDS011;66387;53.440;10.390;2023-04-01T01:40:20;7.45;;;4.55;;
77324;SDS011;66387;53.440;10.390;2023-04-01T01:42:47;7.43;;;3.55;;
77324;SDS011;66387;53.440;10.390;2023-04-01T01:45:16;8.15;;;3.90;;
77324;SDS011;66387;53.440;10.390;2023-04-01T01:47:45;7.63;;;4.40;;
77324;SDS011;66387;53.440;10.390;2023-04-01T01:50:11;6.63;;;3.85;;
77324;SDS011;66387;53.440;10.390;2023-04-01T01:52:38;9.38;;;4.28;;
77324;SDS011;66387;53.440;10.390;2023-04-01T01:55:22;5.90;;;4.23;;
77324;SDS011;66387;53.440;10.390;2023-04-01T01:57:52;8.85;;;5.15;;
77324;SDS011;66387;53.440;10.390;2023-04-01T02:00:20;7.50;;;3.88;;
77324;SDS011;66387;53.440;10.390;2023-04-01T02:02:46;6.88;;;4.15;;
77324;SDS011;66387;53.440;10.390;2023-04-01T02:05:17;7.45;;;4.00;;
77324;SDS011;66387;53.440;10.390;2023-04-01T02:07:46;6.63;;;3.70;;
77324;SDS011;66387;53.440;10.390;2023-04-01T02:10:19;7.82;;;4.22;;
77324;SDS011;66387;53.440;10.390;2023-04-01T02:12:47;7.82;;;3.88;;
77324;SDS011;66387;53.440;10.390;2023-04-01T02:15:15;5.60;;;3.88;;
77324;SDS011;66387;53.440;10.390;2023-04-01T02:17:45;7.07;;;4.10;;
77324;SDS011;66387;53.440;10.390;2023-04-01T02:20:16;6.25;;;4.18;;
77324;SDS011;66387;53.440;10.390;2023-04-01T02:22:54;6.05;;;3.95;;
77324;SDS011;66387;53.440;10.390;2023-04-01T02:25:30;8.75;;;4.28;;
77324;SDS011;66387;53.440;10.390;2023-04-01T02:27:59;10.00;;;4.65;;
77324;SDS011;66387;53.440;10.390;2023-04-01T02:30:26;8.57;;;4.20;;
77324;SDS011;66387;53.440;10.390;2023-04-01T02:32:53;8.60;;;3.67;;
77324;SDS011;66387;53.440;10.390;2023-04-01T02:35:21;6.18;;;3.60;;
77324;SDS011;66387;53.440;10.390;2023-04-01T02:37:48;6.72;;;4.68;;
77324;SDS011;66387;53.440;10.390;2023-04-01T02:40:16;7.95;;;5.28;;
77324;SDS011;66387;53.440;10.390;2023-04-01T02:42:41;6.70;;;4.18;;
77324;SDS011;66387;53.440;10.390;2023-04-01T02:45:07;5.37;;;3.57;;
77324;SDS011;66387;53.440;10.390;2023-04-01T02:47:33;7.47;;;4.03;;
77324;SDS011;66387;53.440;10.390;2023-04-01T02:49:58;10.03;;;4.97;;
77324;SDS011;66387;53.440;10.390;2023-04-01T02:52:27;9.40;;;4.80;;
77324;SDS011;66387;53.440;10.390;2023-04-01T02:54:54;8.68;;;5.10;;
77324;SDS011;66387;53.440;10.390;2023-04-01T02:57:19;8.48;;;5.53;;
77324;SDS011;66387;53.440;10.390;2023-04-01T02:59:45;8.15;;;5.10;;
77324;SDS011;66387;53.440;10.390;2023-04-01T03:02:11;7.30;;;5.00;;
77324;SDS011;66387;53.440;10.390;2023-04-01T03:04:36;9.02;;;4.53;;
77324;SDS011;66387;53.440;10.390;2023-04-01T03:07:02;7.32;;;4.95;;
77324;SDS011;66387;53.440;10.390;2023-04-01T03:09:27;7.90;;;4.25;;
77324;SDS011;66387;53.440;10.390;2023-04-01T03:11:53;6.95;;;4.55;;
77324;SDS011;66387;53.440;10.390;2023-04-01T03:14:19;6.20;;;4.30;;
77324;SDS011;66387;53.440;10.390;2023-04-01T03:16:44;6.40;;;4.70;;
77324;SDS011;66387;53.440;10.390;2023-04-01T03:19:09;8.83;;;5.47;;
77324;SDS011;66387;53.440;10.390;2023-04-01T03:21:35;8.93;;;5.10;;
77324;SDS011;66387;53.440;10.390;2023-04-01T03:24:00;7.83;;;5.00;;
77324;SDS011;66387;53.440;10.390;2023-04-01T03:26:25;8.23;;;4.30;;
77324;SDS011;66387;53.440;10.390;2023-04-01T03:28:52;7.50;;;4.50;;
77324;SDS011;66387;53.440;10.390;2023-04-01T03:31:17;6.38;;;4.07;;
77324;SDS011;66387;53.440;10.390;2023-04-01T03:33:43;7.50;;;4.45;;
77324;SDS011;66387;53.440;10.390;2023-04-01T03:36:09;5.32;;;3.97;;
77324;SDS011;66387;53.440;10.390;2023-04-01T03:38:36;6.35;;;3.83;;
77324;SDS011;66387;53.440;10.390;2023-04-01T03:41:01;4.40;;;4.00;;
77324;SDS011;66387;53.440;10.390;2023-04-01T03:43:27;6.03;;;3.88;;
77324;SDS011;66387;53.440;10.390;2023-04-01T03:45:52;5.80;;;3.73;;
77324;SDS011;66387;53.440;10.390;2023-04-01T03:48:19;4.32;;;3.25;;
77324;SDS011;66387;53.440;10.390;2023-04-01T03:50:45;4.68;;;4.13;;
77324;SDS011;66387;53.440;10.390;2023-04-01T03:53:10;4.90;;;3.23;;
77324;SDS011;66387;53.440;10.390;2023-04-01T03:55:36;5.15;;;3.22;;
77324;SDS011;66387;53.440;10.390;2023-04-01T03:58:02;5.55;;;3.55;;
77324;SDS011;66387;53.440;10.390;2023-04-01T04:00:28;7.20;;;4.00;;
77324;SDS011;66387;53.440;10.390;2023-04-01T04:02:54;6.90;;;3.78;;
77324;SDS011;66387;53.440;10.390;2023-04-01T04:05:21;5.30;;;3.78;;
77324;SDS011;66387;53.440;10.390;2023-04-01T04:07:47;4.75;;;3.60;;
77324;SDS011;66387;53.440;10.390;2023-04-01T04:10:12;8.07;;;3.43;;
77324;SDS011;66387;53.440;10.390;2023-04-01T04:12:37;5.17;;;3.93;;
77324;SDS011;66387;53.440;10.390;2023-04-01T04:15:03;5.27;;;3.97;;
77324;SDS011;66387;53.440;10.390;2023-04-01T04:17:28;5.40;;;4.03;;
77324;SDS011;66387;53.440;10.390;2023-04-01T04:19:53;4.70;;;3.53;;
77324;SDS011;66387;53.440;10.390;2023-04-01T04:22:19;6.43;;;4.30;;
77324;SDS011;66387;53.440;10.390;2023-04-01T04:24:44;4.82;;;4.07;;
77324;SDS011;66387;53.440;10.390;2023-04-01T04:27:09;5.90;;;3.67;;
77324;SDS011;66387;53.440;10.390;2023-04-01T04:29:35;5.43;;;3.23;;
77324;SDS011;66387;53.440;10.390;2023-04-01T04:32:00;6.50;;;4.03;;
77324;SDS011;66387;53.440;10.390;2023-04-01T04:34:25;6.27;;;4.20;;
77324;SDS011;66387;53.440;10.390;2023-04-01T04:36:50;4.68;;;3.50;;
77324;SDS011;66387;53.440;10.390;2023-04-01T04:39:16;5.53;;;4.07;;
77324;SDS011;66387;53.440;10.390;2023-04-01T04:41:41;5.83;;;3.60;;
77324;SDS011;66387;53.440;10.390;2023-04-01T04:44:06;4.50;;;3.93;;
77324;SDS011;66387;53.440;10.390;2023-04-01T04:46:32;5.75;;;3.60;;
77324;SDS011;66387;53.440;10.390;2023-04-01T04:48:57;6.10;;;3.92;;
77324;SDS011;66387;53.440;10.390;2023-04-01T04:51:23;8.37;;;4.97;;
77324;SDS011;66387;53.440;10.390;2023-04-01T04:53:48;6.50;;;3.65;;
77324;SDS011;66387;53.440;10.390;2023-04-01T04:56:17;5.72;;;3.58;;
77324;SDS011;66387;53.440;10.390;2023-04-01T04:58:44;5.55;;;4.30;;
77324;SDS011;66387;53.440;10.390;2023-04-01T05:01:11;8.75;;;4.00;;
77324;SDS011;66387;53.440;10.390;2023-04-01T05:03:38;6.00;;;4.40;;
77324;SDS011;66387;53.440;10.390;2023-04-01T05:06:04;7.30;;;4.40;;
77324;SDS011;66387;53.440;10.390;2023-04-01T05:08:30;6.28;;;4.20;;
77324;SDS011;66387;53.440;10.390;2023-04-01T05:10:57;9.25;;;4.32;;
77324;SDS011;66387;53.440;10.390;2023-04-01T05:13:23;7.55;;;4.55;;
77324;SDS011;66387;53.440;10.390;2023-04-01T05:15:48;7.25;;;4.18;;
77324;SDS011;66387;53.440;10.390;2023-04-01T05:18:13;7.83;;;4.20;;
77324;SDS011;66387;53.440;10.390;2023-04-01T05:20:38;4.93;;;3.30;;
77324;SDS011;66387;53.440;10.390;2023-04-01T05:23:04;6.67;;;4.00;;
77324;SDS011;66387;53.440;10.390;2023-04-01T05:25:29;8.30;;;4.13;;
77324;SDS011;66387;53.440;10.390;2023-04-01T05:27:54;4.32;;;3.67;;
77324;SDS011;66387;53.440;10.390;2023-04-01T05:30:20;6.30;;;4.07;;
77324;SDS011;66387;53.440;10.390;2023-04-01T05:32:45;6.70;;;3.88;;
77324;SDS011;66387;53.440;10.390;2023-04-01T05:35:10;6.07;;;3.80;;
77324;SDS011;66387;53.440;10.390;2023-04-01T05:37:36;5.63;;;4.57;;
77324;SDS011;66387;53.440;10.390;2023-04-01T05:40:02;9.45;;;5.10;;
77324;SDS011;66387;53.440;10.390;2023-04-01T05:42:28;7.90;;;5.53;;
77324;SDS011;66387;53.440;10.390;2023-04-01T05:44:53;3.00;;;2.10;;
77324;SDS011;66387;53.440;10.390;2023-04-01T05:47:18;2.47;;;1.70;;
77324;SDS011;66387;53.440;10.390;2023-04-01T05:49:43;1.37;;;1.10;;
77324;SDS011;66387;53.440;10.390;2023-04-01T05:52:09;1.60;;;1.30;;
77324;SDS011;66387;53.440;10.390;2023-04-01T05:54:34;3.27;;;1.33;;
77324;SDS011;66387;53.440;10.390;2023-04-01T05:56:59;3.28;;;1.70;;
77324;SDS011;66387;53.440;10.390;2023-04-01T05:59:25;1.77;;;1.37;;
77324;SDS011;66387;53.440;10.390;2023-04-01T06:01:50;2.15;;;1.40;;
77324;SDS011;66387;53.440;10.390;2023-04-01T06:04:16;3.07;;;1.53;;
77324;SDS011;66387;53.440;10.390;2023-04-01T06:06:42;1.75;;;1.42;;
77324;SDS011;66387;53.440;10.390;2023-04-01T06:09:27;2.92;;;2.00;;
77324;SDS011;66387;53.440;10.390;2023-04-01T06:14:42;3.15;;;2.05;;
77324;SDS011;66387;53.440;10.390;2023-04-01T06:22:51;2.33;;;1.63;;
77324;SDS011;66387;53.440;10.390;2023-04-01T06:25:37;2.35;;;1.55;;
77324;SDS011;66387;53.440;10.390;2023-04-01T06:28:29;2.33;;;1.75;;
77324;SDS011;66387;53.440;10.390;2023-04-01T06:31:03;2.53;;;1.52;;
77324;SDS011;66387;53.440;10.390;2023-04-01T06:36:23;2.15;;;1.60;;
77324;SDS011;66387;53.440;10.390;2023-04-01T06:42:22;2.20;;;1.45;;
77324;SDS011;66387;53.440;10.390;2023-04-01T06:47:49;2.75;;;1.52;;
77324;SDS011;66387;53.440;10.390;2023-04-01T06:53:19;1.92;;;1.63;;
77324;SDS011;66387;53.440;10.390;2023-04-01T06:55:51;1.67;;;1.15;;
77324;SDS011;66387;53.440;10.390;2023-04-01T06:58:26;1.55;;;1.02;;
77324;SDS011;66387;53.440;10.390;2023-04-01T07:00:59;2.17;;;1.20;;
77324;SDS011;66387;53.440;10.390;2023-04-01T07:03:36;1.58;;;1.17;;
77324;SDS011;66387;53.440;10.390;2023-04-01T07:06:10;1.17;;;0.98;;
77324;SDS011;66387;53.440;10.390;2023-04-01T07:08:41;3.00;;;1.42;;
77324;SDS011;66387;53.440;10.390;2023-04-01T07:11:10;1.48;;;1.23;;
77324;SDS011;66387;53.440;10.390;2023-04-01T07:19:09;1.83;;;0.85;;
77324;SDS011;66387;53.440;10.390;2023-04-01T07:21:42;1.27;;;0.90;;
77324;SDS011;66387;53.440;10.390;2023-04-01T07:24:15;1.80;;;1.00;;
77324;SDS011;66387;53.440;10.390;2023-04-01T07:27:03;1.10;;;0.85;;
77324;SDS011;66387;53.440;10.390;2023-04-01T07:29:33;1.40;;;0.90;;
77324;SDS011;66387;53.440;10.390;2023-04-01T07:32:04;1.88;;;1.00;;
77324;SDS011;66387;53.440;10.390;2023-04-01T07:37:15;1.58;;;1.10;;
77324;SDS011;66387;53.440;10.390;2023-04-01T07:42:31;0.98;;;0.73;;
77324;SDS011;66387;53.440;10.390;2023-04-01T07:50:29;1.30;;;1.10;;
77324;SDS011;66387;53.440;10.390;2023-04-01T07:53:12;2.00;;;1.15;;
77324;SDS011;66387;53.440;10.390;2023-04-01T07:56:09;1.77;;;1.08;;
77324;SDS011;66387;53.440;10.390;2023-04-01T08:01:45;1.20;;;1.10;;
77324;SDS011;66387;53.440;10.390;2023-04-01T08:04:23;1.88;;;1.00;;
77324;SDS011;66387;53.440;10.390;2023-04-01T08:07:03;2.28;;;1.30;;
77324;SDS011;66387;53.440;10.390;2023-04-01T08:09:43;2.00;;;1.00;;
77324;SDS011;66387;53.440;10.390;2023-04-01T08:20:28;2.40;;;2.20;;
77324;SDS011;66387;53.440;10.390;2023-04-01T08:26:17;2.00;;;1.20;;
77324;SDS011;66387;53.440;10.390;2023-04-01T08:28:52;1.92;;;1.15;;
77324;SDS011;66387;53.440;10.390;2023-04-01T08:31:43;1.45;;;1.08;;
77324;SDS011;66387;53.440;10.390;2023-04-01T08:34:18;1.58;;;1.20;;
77324;SDS011;66387;53.440;10.390;2023-04-01T08:36:51;2.50;;;1.42;;
77324;SDS011;66387;53.440;10.390;2023-04-01T08:39:27;1.85;;;1.35;;
77324;SDS011;66387;53.440;10.390;2023-04-01T08:58:52;1.52;;;1.00;;
77324;SDS011;66387;53.440;10.390;2023-04-01T09:01:28;1.75;;;1.27;;
77324;SDS011;66387;53.440;10.390;2023-04-01T09:07:21;1.63;;;1.17;;
77324;SDS011;66387;53.440;10.390;2023-04-01T09:15:47;1.13;;;0.90;;
77324;SDS011;66387;53.440;10.390;2023-04-01T09:18:39;1.13;;;1.02;;
77324;SDS011;66387;53.440;10.390;2023-04-01T09:21:31;0.93;;;0.73;;
77324;SDS011;66387;53.440;10.390;2023-04-01T09:24:09;2.15;;;1.60;;
77324;SDS011;66387;53.440;10.390;2023-04-01T09:27:04;1.05;;;0.82;;
77324;SDS011;66387;53.440;10.390;2023-04-01T09:29:45;1.25;;;0.95;;
77324;SDS011;66387;53.440;10.390;2023-04-01T09:35:24;1.23;;;0.85;;
77324;SDS011;66387;53.440;10.390;2023-04-01T09:54:58;0.65;;;0.63;;
77324;SDS011;66387;53.440;10.390;2023-04-01T10:11:45;0.68;;;0.68;;
77324;SDS011;66387;53.440;10.390;2023-04-01T10:17:15;1.77;;;1.02;;
77324;SDS011;66387;53.440;10.390;2023-04-01T10:34:13;1.33;;;1.00;;
77324;SDS011;66387;53.440;10.390;2023-04-01T10:36:54;1.58;;;1.10;;
77324;SDS011;66387;53.440;10.390;2023-04-01T10:48:20;1.40;;;0.88;;
77324;SDS011;66387;53.440;10.390;2023-04-01T10:51:00;1.33;;;0.80;;
77324;SDS011;66387;53.440;10.390;2023-04-01T10:59:24;0.85;;;0.80;;
77324;SDS011;66387;53.440;10.390;2023-04-01T11:16:23;1.02;;;0.73;;
77324;SDS011;66387;53.440;10.390;2023-04-01T11:19:08;1.25;;;0.93;;
77324;SDS011;66387;53.440;10.390;2023-04-01T11:24:55;0.85;;;0.82;;
77324;SDS011;66387;53.440;10.390;2023-04-01T11:27:41;1.50;;;1.10;;
77324;SDS011;66387;53.440;10.390;2023-04-01T11:30:12;1.48;;;1.15;;
77324;SDS011;66387;53.440;10.390;2023-04-01T11:33:06;1.52;;;1.10;;
77324;SDS011;66387;53.440;10.390;2023-04-01T11:39:00;1.70;;;1.10;;
77324;SDS011;66387;53.440;10.390;2023-04-01T11:41:49;2.70;;;1.40;;
77324;SDS011;66387;53.440;10.390;2023-04-01T11:44:23;1.73;;;1.20;;
77324;SDS011;66387;53.440;10.390;2023-04-01T12:01:44;4.00;;;3.05;;
77324;SDS011;66387;53.440;10.390;2023-04-01T12:10:10;3.60;;;2.55;;
77324;SDS011;66387;53.440;10.390;2023-04-01T12:13:45;3.75;;;2.55;;
77324;SDS011;66387;53.440;10.390;2023-04-01T12:33:04;3.85;;;3.10;;
77324;SDS011;66387;53.440;10.390;2023-04-01T12:35:55;4.45;;;3.03;;
77324;SDS011;66387;53.440;10.390;2023-04-01T12:38:51;3.78;;;2.88;;
77324;SDS011;66387;53.440;10.390;2023-04-01T12:44:33;4.95;;;2.53;;
77324;SDS011;66387;53.440;10.390;2023-04-01T12:50:28;4.80;;;2.95;;
77324;SDS011;66387;53.440;10.390;2023-04-01T12:56:14;3.65;;;2.35;;
77324;SDS011;66387;53.440;10.390;2023-04-01T13:07:19;4.90;;;2.90;;
77324;SDS011;66387;53.440;10.390;2023-04-01T13:32:02;4.28;;;2.95;;
77324;SDS011;66387;53.440;10.390;2023-04-01T13:40:34;3.78;;;2.58;;
77324;SDS011;66387;53.440;10.390;2023-04-01T13:43:26;5.28;;;2.95;;
77324;SDS011;66387;53.440;10.390;2023-04-01T14:10:48;4.63;;;2.33;;
77324;SDS011;66387;53.440;10.390;2023-04-01T14:21:57;3.15;;;2.45;;
77324;SDS011;66387;53.440;10.390;2023-04-01T14:24:32;5.93;;;2.58;;
77324;SDS011;66387;53.440;10.390;2023-04-01T14:29:57;4.95;;;2.83;;
77324;SDS011;66387;53.440;10.390;2023-04-01T14:35:24;3.60;;;2.70;;
77324;SDS011;66387;53.440;10.390;2023-04-01T14:50:03;6.70;;;3.95;;
77324;SDS011;66387;53.440;10.390;2023-04-01T14:52:35;5.47;;;3.70;;
77324;SDS011;66387;53.440;10.390;2023-04-01T14:55:15;6.75;;;3.40;;
77324;SDS011;66387;53.440;10.390;2023-04-01T14:57:57;5.45;;;3.60;;
77324;SDS011;66387;53.440;10.390;2023-04-01T15:00:25;8.30;;;4.30;;
77324;SDS011;66387;53.440;10.390;2023-04-01T15:05:49;6.63;;;3.92;;
77324;SDS011;66387;53.440;10.390;2023-04-01T15:08:43;8.07;;;3.55;;
77324;SDS011;66387;53.440;10.390;2023-04-01T15:11:22;6.00;;;3.00;;
77324;SDS011;66387;53.440;10.390;2023-04-01T15:22:29;5.68;;;3.58;;
77324;SDS011;66387;53.440;10.390;2023-04-01T15:25:23;5.82;;;3.55;;
77324;SDS011;66387;53.440;10.390;2023-04-01T15:33:50;8.13;;;3.25;;
77324;SDS011;66387;53.440;10.390;2023-04-01T15:36:40;4.22;;;3.00;;
77324;SDS011;66387;53.440;10.390;2023-04-01T15:42:19;7.85;;;3.50;;
77324;SDS011;66387;53.440;10.390;2023-04-01T15:45:31;7.88;;;4.10;;
77324;SDS011;66387;53.440;10.390;2023-04-01T15:48:27;4.53;;;3.35;;
77324;SDS011;66387;53.440;10.390;2023-04-01T15:54:12;4.82;;;2.85;;
77324;SDS011;66387;53.440;10.390;2023-04-01T16:05:37;7.68;;;3.40;;
77324;SDS011;66387;53.440;10.390;2023-04-01T16:16:50;5.05;;;3.53;;
77324;SDS011;66387;53.440;10.390;2023-04-01T16:22:44;6.90;;;3.35;;
77324;SDS011;66387;53.440;10.390;2023-04-01T16:31:15;6.30;;;2.83;;
77324;SDS011;66387;53.440;10.390;2023-04-01T16:34:01;4.85;;;3.42;;
77324;SDS011;66387;53.440;10.390;2023-04-01T16:36:50;7.03;;;3.20;;
77324;SDS011;66387;53.440;10.390;2023-04-01T16:44:31;6.67;;;4.07;;
77324;SDS011;66387;53.440;10.390;2023-04-01T16:47:12;5.45;;;3.42;;
77324;SDS011;66387;53.440;10.390;2023-04-01T16:52:34;6.45;;;3.70;;
77324;SDS011;66387;53.440;10.390;2023-04-01T16:55:13;5.38;;;3.65;;
77324;SDS011;66387;53.440;10.390;2023-04-01T16:57:45;5.30;;;3.67;;
77324;SDS011;66387;53.440;10.390;2023-04-01T17:05:40;6.93;;;4.03;;
77324;SDS011;66387;53.440;10.390;2023-04-01T17:08:21;6.45;;;3.25;;
77324;SDS011;66387;53.440;10.390;2023-04-01T17:11:18;4.70;;;2.92;;
77324;SDS011;66387;53.440;10.390;2023-04-01T17:13:58;4.50;;;3.50;;
77324;SDS011;66387;53.440;10.390;2023-04-01T17:16:38;7.22;;;4.00;;
77324;SDS011;66387;53.440;10.390;2023-04-01T17:19:21;6.07;;;3.47;;
77324;SDS011;66387;53.440;10.390;2023-04-01T17:27:28;6.28;;;3.05;;
77324;SDS011;66387;53.440;10.390;2023-04-01T17:30:22;6.85;;;3.92;;
77324;SDS011;66387;53.440;10.390;2023-04-01T17:38:39;6.78;;;3.70;;
77324;SDS011;66387;53.440;10.390;2023-04-01T17:41:36;6.88;;;3.22;;
77324;SDS011;66387;53.440;10.390;2023-04-01T17:44:30;5.03;;;3.60;;
77324;SDS011;66387;53.440;10.390;2023-04-01T17:47:23;5.80;;;3.83;;
77324;SDS011;66387;53.440;10.390;2023-04-01T17:50:08;8.95;;;4.00;;
77324;SDS011;66387;53.440;10.390;2023-04-01T17:55:27;8.00;;;3.80;;
77324;SDS011;66387;53.440;10.390;2023-04-01T17:57:57;6.72;;;4.35;;
77324;SDS011;66387;53.440;10.390;2023-04-01T18:12:07;5.10;;;3.42;;
77324;SDS011;66387;53.440;10.390;2023-04-01T18:15:04;5.53;;;3.08;;
77324;SDS011;66387;53.440;10.390;2023-04-01T18:20:23;6.37;;;3.77;;
77324;SDS011;66387;53.440;10.390;2023-04-01T18:22:58;7.85;;;4.13;;
77324;SDS011;66387;53.440;10.390;2023-04-01T18:25:37;4.45;;;3.42;;
77324;SDS011;66387;53.440;10.390;2023-04-01T18:30:50;8.73;;;4.30;;
77324;SDS011;66387;53.440;10.390;2023-04-01T18:33:50;4.10;;;3.50;;
77324;SDS011;66387;53.440;10.390;2023-04-01T18:36:26;6.38;;;3.65;;
77324;SDS011;66387;53.440;10.390;2023-04-01T18:39:02;5.95;;;4.20;;
77324;SDS011;66387;53.440;10.390;2023-04-01T18:44:38;5.30;;;3.33;;
77324;SDS011;66387;53.440;10.390;2023-04-01T18:52:43;5.00;;;3.63;;
77324;SDS011;66387;53.440;10.390;2023-04-01T18:55:23;6.28;;;3.90;;
77324;SDS011;66387;53.440;10.390;2023-04-01T18:57:58;6.15;;;4.00;;
77324;SDS011;66387;53.440;10.390;2023-04-01T19:00:38;7.35;;;4.68;;
77324;SDS011;66387;53.440;10.390;2023-04-01T19:03:26;4.22;;;3.70;;
77324;SDS011;66387;53.440;10.390;2023-04-01T19:05:59;5.05;;;3.35;;
77324;SDS011;66387;53.440;10.390;2023-04-01T19:08:31;8.82;;;4.20;;
77324;SDS011;66387;53.440;10.390;2023-04-01T19:11:19;4.28;;;3.22;;
77324;SDS011;66387;53.440;10.390;2023-04-01T19:16:46;4.38;;;2.83;;
77324;SDS011;66387;53.440;10.390;2023-04-01T19:21:42;4.30;;;3.20;;
77324;SDS011;66387;53.440;10.390;2023-04-01T19:26:48;6.10;;;3.50;;
77324;SDS011;66387;53.440;10.390;2023-04-01T19:29:26;5.25;;;3.38;;
77324;SDS011;66387;53.440;10.390;2023-04-01T19:42:54;5.82;;;2.92;;
77324;SDS011;66387;53.440;10.390;2023-04-01T19:45:26;4.45;;;2.42;;
77324;SDS011;66387;53.440;10.390;2023-04-01T19:50:42;4.25;;;2.90;;
77324;SDS011;66387;53.440;10.390;2023-04-01T19:56:18;4.50;;;2.95;;
77324;SDS011;66387;53.440;10.390;2023-04-01T20:01:41;4.50;;;2.38;;
77324;SDS011;66387;53.440;10.390;2023-04-01T20:06:52;3.20;;;2.08;;
77324;SDS011;66387;53.440;10.390;2023-04-01T20:13:30;3.03;;;2.22;;
77324;SDS011;66387;53.440;10.390;2023-04-01T20:15:59;3.65;;;2.47;;
77324;SDS011;66387;53.440;10.390;2023-04-01T20:18:37;3.75;;;2.42;;
77324;SDS011;66387;53.440;10.390;2023-04-01T20:21:18;4.13;;;2.47;;
77324;SDS011;66387;53.440;10.390;2023-04-01T20:23:58;5.28;;;2.63;;
77324;SDS011;66387;53.440;10.390;2023-04-01T20:26:32;7.45;;;2.70;;
77324;SDS011;66387;53.440;10.390;2023-04-01T20:31:56;7.07;;;2.92;;
77324;SDS011;66387;53.440;10.390;2023-04-01T20:34:52;11.27;;;4.28;;
77324;SDS011;66387;53.440;10.390;2023-04-01T20:37:47;11.02;;;4.85;;
77324;SDS011;66387;53.440;10.390;2023-04-01T20:40:49;5.13;;;2.08;;
77324;SDS011;66387;53.440;10.390;2023-04-01T20:49:21;3.35;;;1.92;;
77324;SDS011;66387;53.440;10.390;2023-04-01T20:57:21;3.08;;;1.33;;
77324;SDS011;66387;53.440;10.390;2023-04-01T21:00:03;3.65;;;1.73;;
77324;SDS011;66387;53.440;10.390;2023-04-01T21:02:51;3.53;;;1.35;;
77324;SDS011;66387;53.440;10.390;2023-04-01T21:08:17;1.88;;;1.40;;
77324;SDS011;66387;53.440;10.390;2023-04-01T21:16:15;6.00;;;1.83;;
77324;SDS011;66387;53.440;10.390;2023-04-01T21:19:02;4.60;;;1.58;;
77324;SDS011;66387;53.440;10.390;2023-04-01T21:32:34;3.55;;;1.52;;
77324;SDS011;66387;53.440;10.390;2023-04-01T21:35:32;3.80;;;1.65;;
77324;SDS011;66387;53.440;10.390;2023-04-01T21:38:21;4.57;;;1.58;;
77324;SDS011;66387;53.440;10.390;2023-04-01T21:57:12;8.75;;;2.03;;
77324;SDS011;66387;53.440;10.390;2023-04-01T22:05:48;4.55;;;1.80;;
77324;SDS011;66387;53.440;10.390;2023-04-01T22:11:01;4.13;;;1.92;;
77324;SDS011;66387;53.440;10.390;2023-04-01T22:16:18;2.25;;;1.42;;
77324;SDS011;66387;53.440;10.390;2023-04-01T22:18:55;4.25;;;1.30;;
77324;SDS011;66387;53.440;10.390;2023-04-01T22:21:49;3.33;;;1.52;;
77324;SDS011;66387;53.440;10.390;2023-04-01T22:27:30;2.70;;;1.58;;
77324;SDS011;66387;53.440;10.390;2023-04-01T22:32:39;6.93;;;1.92;;
77324;SDS011;66387;53.440;10.390;2023-04-01T22:35:22;2.40;;;1.95;;
77324;SDS011;66387;53.440;10.390;2023-04-01T22:37:58;3.88;;;1.42;;
77324;SDS011;66387;53.440;10.390;2023-04-01T22:40:37;1.73;;;1.30;;
77324;SDS011;66387;53.440;10.390;2023-04-01T22:43:12;1.83;;;1.25;;
77324;SDS011;66387;53.440;10.390;2023-04-01T23:04:39;5.85;;;1.83;;
77324;SDS011;66387;53.440;10.390;2023-04-01T23:13:10;2.55;;;1.20;;
77324;SDS011;66387;53.440;10.390;2023-04-01T23:15:41;7.72;;;1.55;;
77324;SDS011;66387;53.440;10.390;2023-04-01T23:26:43;3.28;;;1.27;;
77324;SDS011;66387;53.440;10.390;2023-04-01T23:29:17;4.68;;;1.70;;
77324;SDS011;66387;53.440;10.390;2023-04-01T23:31:45;3.67;;;1.58;;
77324;SDS011;66387;53.440;10.390;2023-04-01T23:36:39;2.58;;;1.33;;
77324;SDS011;66387;53.440;10.390;2023-04-01T23:39:26;2.33;;;1.40;;
77324;SDS011;66387;53.440;10.390;2023-04-01T23:41:56;2.83;;;1.27;;
77324;SDS011;66387;53.440;10.390;2023-04-01T23:44:32;1.77;;;1.13;;
77324;SDS011;66387;53.440;10.390;2023-04-01T23:46:59;3.60;;;1.55;;
77324;SDS011;66387;53.440;10.390;2023-04-01T23:49:31;3.38;;;1.40;;
77324;SDS011;66387;53.440;10.390;2023-04-01T23:54:54;1.45;;;0.93;;
77324;SDS011;66387;53.440;10.390;2023-04-01T23:57:34;3.92;;;1.45;;
